createdAt,value
2019-05-29T00:00:50.298Z,88.55
2019-05-29T00:01:48.965Z,89.27
2019-05-29T00:02:47.682Z,90.81
2019-05-29T00:03:46.273Z,92.15
2019-05-29T00:04:44.978Z,93.11
2019-05-29T00:05:43.593Z,92.72
2019-05-29T00:06:42.170Z,92.63
2019-05-29T00:07:40.752Z,91.91
2019-05-29T00:08:39.523Z,91.81
2019-05-29T00:09:38.077Z,91.14
2019-05-29T00:10:36.630Z,91.62
2019-05-29T00:11:35.287Z,90.75
2019-05-29T00:12:33.868Z,90.56
2019-05-29T00:13:32.415Z,90.75
2019-05-29T00:14:30.992Z,90.75
2019-05-29T00:15:29.673Z,90.08
2019-05-29T00:16:28.208Z,89.32
2019-05-29T00:17:26.848Z,89.51
2019-05-29T00:18:25.608Z,88.74
2019-05-29T00:19:24.145Z,89.32
2019-05-29T00:20:22.708Z,89.32
2019-05-29T00:21:21.423Z,89.51
2019-05-29T00:22:20.020Z,89.94
2019-05-29T00:23:18.856Z,90.81
2019-05-29T00:24:17.150Z,90.61
2019-05-29T00:25:16.654Z,90.33
2019-05-29T00:26:14.607Z,90.52
2019-05-29T00:27:15.429Z,89.94
2019-05-29T00:28:12.635Z,89.94
2019-05-29T00:29:10.294Z,89.65
2019-05-29T00:30:08.933Z,89.94
2019-05-29T00:31:07.791Z,89.94
2019-05-29T00:32:06.835Z,89.75
2019-05-29T00:33:05.901Z,89.94
2019-05-29T00:34:03.361Z,89.94
2019-05-29T00:35:01.905Z,89.85
2019-05-29T00:36:00.548Z,90.23
2019-05-29T00:36:59.220Z,90.61
2019-05-29T00:37:58.048Z,90.42
2019-05-29T00:38:56.699Z,89.94
2019-05-29T00:39:55.281Z,89.85
2019-05-29T00:40:53.839Z,89.65
2019-05-29T00:41:52.404Z,89.9
2019-05-29T00:42:51.044Z,90.52
2019-05-29T00:43:49.676Z,90.61
2019-05-29T00:44:48.240Z,90.23
2019-05-29T00:45:46.847Z,90.04
2019-05-29T00:46:45.706Z,90.23
2019-05-29T00:47:44.224Z,89.85
2019-05-29T00:48:42.784Z,89.56
2019-05-29T00:49:41.417Z,88.89
2019-05-29T00:50:39.995Z,89.65
2019-05-29T00:51:38.656Z,89.27
2019-05-29T00:52:37.401Z,89.18
2019-05-29T00:53:36.023Z,89.42
2019-05-29T00:54:34.655Z,89.27
2019-05-29T00:55:33.381Z,89.27
2019-05-29T00:56:31.941Z,89.94
2019-05-29T00:57:30.502Z,90.04
2019-05-29T00:58:29.049Z,90.57
2019-05-29T00:59:27.637Z,90.52
2019-05-29T01:00:26.216Z,90.52
2019-05-29T01:01:24.805Z,90.04
2019-05-29T01:02:23.552Z,90.23
2019-05-29T01:03:22.138Z,89.94
2019-05-29T01:04:20.692Z,89.65
2019-05-29T01:05:20.127Z,89.65
2019-05-29T01:06:18.121Z,89.27
2019-05-29T01:07:16.711Z,89.56
2019-05-29T01:08:16.354Z,89.27
2019-05-29T01:09:14.422Z,89.27
2019-05-29T01:10:13.104Z,89.08
2019-05-29T01:11:11.276Z,89.27
2019-05-29T01:12:10.799Z,89.65
2019-05-29T01:13:08.406Z,88.79
2019-05-29T01:14:07.079Z,88.74
2019-05-29T01:15:05.760Z,88.74
2019-05-29T01:16:04.315Z,89.12
2019-05-29T01:17:02.945Z,89.22
2019-05-29T01:18:01.486Z,88.65
2019-05-29T01:19:00.071Z,88.07
2019-05-29T01:19:58.624Z,88.26
2019-05-29T01:20:57.346Z,88.55
2019-05-29T01:21:55.905Z,88.74
2019-05-29T01:22:54.448Z,87.49
2019-05-29T01:23:53.317Z,87.78
2019-05-29T01:24:52.010Z,87.68
2019-05-29T01:25:50.579Z,88.45
2019-05-29T01:26:49.136Z,88.45
2019-05-29T01:27:47.757Z,87.59
2019-05-29T01:28:46.324Z,88.6
2019-05-29T01:29:45.016Z,89.22
2019-05-29T01:30:43.753Z,88.79
2019-05-29T01:31:42.281Z,89.03
2019-05-29T01:32:40.815Z,89.22
2019-05-29T01:33:39.371Z,88.55
2019-05-29T01:34:37.932Z,88.26
2019-05-29T01:35:36.504Z,88.45
2019-05-29T01:36:35.253Z,88.26
2019-05-29T01:37:33.796Z,88.65
2019-05-29T01:38:32.350Z,88.55
2019-05-29T01:39:31.166Z,88.26
2019-05-29T01:40:29.891Z,87.68
2019-05-29T01:41:28.447Z,87.68
2019-05-29T01:42:27.720Z,86.54
2019-05-29T01:43:25.725Z,85.28
2019-05-29T01:44:24.289Z,84.61
2019-05-29T01:45:23.530Z,84.42
2019-05-29T01:46:21.575Z,83.85
2019-05-29T01:47:20.042Z,82.51
2019-05-29T01:48:19.527Z,81.93
2019-05-29T01:49:17.901Z,81.54
2019-05-29T01:50:17.557Z,81.26
2019-05-29T01:51:15.405Z,81.35
2019-05-29T01:52:13.511Z,81.45
2019-05-29T01:53:12.070Z,81.26
2019-05-29T01:54:10.990Z,80.87
2019-05-29T01:55:09.715Z,80.4
2019-05-29T01:56:08.284Z,80.2
2019-05-29T01:57:06.926Z,80.01
2019-05-29T01:58:05.543Z,80.3
2019-05-29T01:59:04.129Z,80.4
2019-05-29T02:00:02.692Z,80.11
2019-05-29T02:01:01.333Z,80.49
2019-05-29T02:01:59.871Z,80.78
2019-05-29T02:02:58.445Z,81.64
2019-05-29T02:03:57.116Z,83.75
2019-05-29T02:04:55.838Z,84.61
2019-05-29T02:05:54.415Z,85.67
2019-05-29T02:06:53.370Z,87.01
2019-05-29T02:07:52.026Z,87.11
2019-05-29T02:08:50.617Z,87.68
2019-05-29T02:09:49.299Z,87.74
2019-05-29T02:10:47.948Z,88.41
2019-05-29T02:11:46.516Z,88.65
2019-05-29T02:12:45.301Z,88.84
2019-05-29T02:13:43.854Z,87.78
2019-05-29T02:14:42.573Z,88.65
2019-05-29T02:15:41.286Z,88.45
2019-05-29T02:16:39.980Z,88.45
2019-05-29T02:17:38.549Z,89.03
2019-05-29T02:18:37.271Z,89.18
2019-05-29T02:19:35.833Z,89.47
2019-05-29T02:20:34.398Z,89.51
2019-05-29T02:21:32.976Z,90.14
2019-05-29T02:22:31.537Z,89.85
2019-05-29T02:23:30.074Z,89.85
2019-05-29T02:24:28.662Z,89.22
2019-05-29T02:25:27.346Z,89.47
2019-05-29T02:26:26.538Z,89.47
2019-05-29T02:27:25.497Z,89.32
2019-05-29T02:28:24.514Z,89.56
2019-05-29T02:29:22.923Z,89.12
2019-05-29T02:30:22.963Z,89.32
2019-05-29T02:31:20.031Z,89.32
2019-05-29T02:32:19.544Z,89.51
2019-05-29T02:33:17.525Z,89.7
2019-05-29T02:34:15.402Z,89.61
2019-05-29T02:35:13.998Z,88.84
2019-05-29T02:36:12.569Z,89.03
2019-05-29T02:37:11.140Z,89.12
2019-05-29T02:38:09.726Z,89.12
2019-05-29T02:39:08.364Z,88.55
2019-05-29T02:40:07.102Z,88.74
2019-05-29T02:41:05.764Z,88.45
2019-05-29T02:42:04.353Z,88.55
2019-05-29T02:43:03.086Z,89.08
2019-05-29T02:44:01.726Z,88.35
2019-05-29T02:45:00.280Z,88.65
2019-05-29T02:45:58.986Z,88.45
2019-05-29T02:46:57.645Z,88.55
2019-05-29T02:47:56.213Z,88.74
2019-05-29T02:48:54.821Z,89.75
2019-05-29T02:49:53.537Z,89.89
2019-05-29T02:50:52.092Z,89.56
2019-05-29T02:51:50.675Z,89.79
2019-05-29T02:52:49.486Z,89.22
2019-05-29T02:53:48.027Z,88.7
2019-05-29T02:54:46.597Z,85.92
2019-05-29T02:55:45.375Z,84.86
2019-05-29T02:56:44.043Z,84
2019-05-29T02:57:42.648Z,83.61
2019-05-29T02:58:41.196Z,82.85
2019-05-29T02:59:39.770Z,82.56
2019-05-29T03:00:38.318Z,82.27
2019-05-29T03:01:36.907Z,82.37
2019-05-29T03:02:35.559Z,82.12
2019-05-29T03:03:39.358Z,82.21
2019-05-29T03:04:33.246Z,82.31
2019-05-29T03:05:32.037Z,81.89
2019-05-29T03:06:30.384Z,81.79
2019-05-29T03:07:30.606Z,82.08
2019-05-29T03:08:29.509Z,81.98
2019-05-29T03:09:26.549Z,81.98
2019-05-29T03:10:24.860Z,81.79
2019-05-29T03:11:25.020Z,82.08
2019-05-29T03:12:22.852Z,82.08
2019-05-29T03:13:20.471Z,81.79
2019-05-29T03:14:19.228Z,81.6
2019-05-29T03:15:17.962Z,82.08
2019-05-29T03:16:16.546Z,81.51
2019-05-29T03:17:15.241Z,81.7
2019-05-29T03:18:13.881Z,82.27
2019-05-29T03:19:12.439Z,82.08
2019-05-29T03:20:11.261Z,82.18
2019-05-29T03:21:09.911Z,82.08
2019-05-29T03:22:08.474Z,81.7
2019-05-29T03:23:07.206Z,82.75
2019-05-29T03:24:05.872Z,82.65
2019-05-29T03:25:04.431Z,82.46
2019-05-29T03:26:02.954Z,82.56
2019-05-29T03:27:01.638Z,82.56
2019-05-29T03:28:00.140Z,82.08
2019-05-29T03:28:58.695Z,82.37
2019-05-29T03:29:57.415Z,82.37
2019-05-29T03:30:55.977Z,82.46
2019-05-29T03:31:54.537Z,82.56
2019-05-29T03:32:53.159Z,82.65
2019-05-29T03:33:51.773Z,82.65
2019-05-29T03:34:50.342Z,82.65
2019-05-29T03:35:48.974Z,82.9
2019-05-29T03:36:49.124Z,82.94
2019-05-29T03:37:46.893Z,82.94
2019-05-29T03:38:45.551Z,83.14
2019-05-29T03:39:44.126Z,83.09
2019-05-29T03:40:42.846Z,82.94
2019-05-29T03:41:41.559Z,83.23
2019-05-29T03:42:40.149Z,83.86
2019-05-29T03:43:38.926Z,83.58
2019-05-29T03:44:38.654Z,83.76
2019-05-29T03:45:37.731Z,83.52
2019-05-29T03:46:42.610Z,83.48
2019-05-29T03:47:34.935Z,83.76
2019-05-29T03:48:32.352Z,83.67
2019-05-29T03:49:31.088Z,83.67
2019-05-29T03:50:30.717Z,83.86
2019-05-29T03:51:29.454Z,83.76
2019-05-29T03:52:26.890Z,83.86
2019-05-29T03:53:24.870Z,83.67
2019-05-29T03:54:26.441Z,83.76
2019-05-29T03:55:22.338Z,83.48
2019-05-29T03:56:20.901Z,83.76
2019-05-29T03:57:19.684Z,83.67
2019-05-29T03:58:18.261Z,83.67
2019-05-29T03:59:16.831Z,84.05
2019-05-29T04:00:15.480Z,83.71
2019-05-29T04:01:14.073Z,83.61
2019-05-29T04:02:12.660Z,83.04
2019-05-29T04:03:11.362Z,83.14
2019-05-29T04:04:09.994Z,83.23
2019-05-29T04:05:08.566Z,83.58
2019-05-29T04:06:07.151Z,83.86
2019-05-29T04:07:05.784Z,83.95
2019-05-29T04:08:04.313Z,83.48
2019-05-29T04:09:03.092Z,83.52
2019-05-29T04:10:01.826Z,83.67
2019-05-29T04:11:00.389Z,83.95
2019-05-29T04:11:59.017Z,83.67
2019-05-29T04:12:57.668Z,83.61
2019-05-29T04:13:56.223Z,83.61
2019-05-29T04:14:54.760Z,83.52
2019-05-29T04:15:53.309Z,83.61
2019-05-29T04:16:59.448Z,84.05
2019-05-29T04:17:50.441Z,83.95
2019-05-29T04:18:49.298Z,84.19
2019-05-29T04:19:47.955Z,83.67
2019-05-29T04:20:46.631Z,83.42
2019-05-29T04:21:45.305Z,83.42
2019-05-29T04:22:43.859Z,83.91
2019-05-29T04:23:42.412Z,83.58
2019-05-29T04:24:40.964Z,84.53
2019-05-29T04:25:42.712Z,84.34
2019-05-29T04:26:38.544Z,84.05
2019-05-29T04:27:38.420Z,83.86
2019-05-29T04:28:36.849Z,83.42
2019-05-29T04:29:34.315Z,83.91
2019-05-29T04:30:34.285Z,83.71
2019-05-29T04:31:32.472Z,83.61
2019-05-29T04:32:30.061Z,83.71
2019-05-29T04:33:30.301Z,83.71
2019-05-29T04:34:29.446Z,84
2019-05-29T04:35:26.074Z,83.67
2019-05-29T04:36:24.732Z,84.19
2019-05-29T04:37:23.367Z,83.95
2019-05-29T04:38:21.966Z,83.67
2019-05-29T04:39:20.493Z,84.91
2019-05-29T04:40:19.117Z,84.44
2019-05-29T04:41:17.723Z,84.44
2019-05-29T04:42:16.297Z,84.15
2019-05-29T04:43:15.099Z,83.95
2019-05-29T04:44:13.846Z,84.25
2019-05-29T04:45:12.430Z,84.48
2019-05-29T04:46:11.077Z,84.48
2019-05-29T04:47:11.727Z,84.15
2019-05-29T04:48:08.281Z,84.48
2019-05-29T04:49:06.865Z,84.48
2019-05-29T04:50:05.626Z,83.95
2019-05-29T04:51:04.189Z,84.63
2019-05-29T04:52:02.742Z,84.91
2019-05-29T04:53:01.657Z,84.38
2019-05-29T04:54:00.227Z,84.25
2019-05-29T04:54:58.821Z,84.09
2019-05-29T04:55:57.459Z,84.38
2019-05-29T04:56:56.043Z,83.81
2019-05-29T04:57:54.631Z,83.71
2019-05-29T04:58:53.377Z,85.01
2019-05-29T04:59:51.974Z,84.53
2019-05-29T05:00:58.801Z,84.63
2019-05-29T05:01:49.312Z,84.86
2019-05-29T05:02:47.901Z,84.86
2019-05-29T05:03:46.482Z,84
2019-05-29T05:04:45.108Z,84.09
2019-05-29T05:05:43.745Z,83.81
2019-05-29T05:06:42.309Z,83.52
2019-05-29T05:07:41.000Z,83.61
2019-05-29T05:08:39.806Z,83.52
2019-05-29T05:09:39.521Z,83.81
2019-05-29T05:10:37.763Z,84.86
2019-05-29T05:11:35.544Z,90.23
2019-05-29T05:12:34.128Z,90.81
2019-05-29T05:13:33.446Z,87.64
2019-05-29T05:14:31.527Z,90.04
2019-05-29T05:15:29.789Z,88.41
2019-05-29T05:17:38.006Z,87.64
2019-05-29T05:18:36.099Z,87.45
2019-05-29T05:19:35.855Z,86.78
2019-05-29T05:20:33.993Z,88.41
2019-05-29T05:21:32.031Z,87.55
2019-05-29T05:22:30.500Z,85.72
2019-05-29T05:23:30.049Z,88.6
2019-05-29T05:24:27.805Z,86.58
2019-05-29T05:25:26.357Z,88.89
2019-05-29T05:26:24.995Z,91.19
2019-05-29T05:27:23.881Z,88.12
2019-05-29T05:28:22.457Z,91.67
2019-05-29T05:29:21.260Z,92.34
2019-05-29T05:30:19.921Z,90.23
2019-05-29T05:31:18.500Z,87.64
2019-05-29T05:32:17.077Z,87.41
2019-05-29T05:33:15.717Z,98.77
2019-05-29T05:34:14.306Z,97.71
2019-05-29T05:35:14.441Z,89.75
2019-05-29T05:36:11.587Z,88.17
2019-05-29T05:37:10.148Z,87.74
2019-05-29T05:38:08.711Z,86.68
2019-05-29T05:39:07.400Z,86.49
2019-05-29T05:40:06.033Z,89.75
2019-05-29T05:41:04.591Z,91.19
2019-05-29T05:42:03.299Z,92.44
2019-05-29T05:43:01.930Z,91.77
2019-05-29T05:44:00.787Z,88.79
2019-05-29T05:44:59.621Z,88.89
2019-05-29T05:45:58.214Z,93.49
2019-05-29T05:46:56.912Z,95.07
2019-05-29T05:47:57.644Z,91.77
2019-05-29T05:48:54.037Z,89.23
2019-05-29T05:49:52.600Z,91.72
2019-05-29T05:50:51.186Z,90.09
2019-05-29T05:51:49.859Z,91.63
2019-05-29T05:52:48.399Z,92.72
2019-05-29T05:53:47.016Z,94.35
2019-05-29T05:54:45.824Z,93.3
2019-05-29T05:55:44.422Z,92.34
2019-05-29T05:56:42.989Z,92.82
2019-05-29T05:57:41.884Z,92.44
2019-05-29T05:58:40.171Z,93.59
2019-05-29T05:59:39.860Z,98.96
2019-05-29T06:00:37.950Z,96.66
2019-05-29T06:01:35.997Z,97.23
2019-05-29T06:02:35.795Z,97.23
2019-05-29T06:03:33.898Z,95.12
2019-05-29T06:04:31.890Z,94.07
2019-05-29T06:05:31.652Z,94.07
2019-05-29T06:06:29.058Z,99.91
2019-05-29T06:07:27.738Z,96.47
2019-05-29T06:08:26.297Z,97.14
2019-05-29T06:12:42.836Z,97.9
2019-05-29T06:13:40.810Z,95.03
2019-05-29T06:16:14.919Z,98
2019-05-29T06:17:13.715Z,95.21
2019-05-29T06:18:20.914Z,98.82
2019-05-29T06:19:10.818Z,96.66
2019-05-29T06:20:09.447Z,98.38
2019-05-29T06:21:07.986Z,99.99
2019-05-29T06:22:06.552Z,99.99
2019-05-29T06:23:05.286Z,97.09
2019-05-29T06:25:05.460Z,94.98
2019-05-29T06:27:13.189Z,95.55
2019-05-29T06:28:11.975Z,95.94
2019-05-29T06:29:10.553Z,93.54
2019-05-29T06:30:09.165Z,93.73
2019-05-29T06:31:07.776Z,99.99
2019-05-29T06:32:06.357Z,99.99
2019-05-29T06:33:04.908Z,96.99
2019-05-29T06:34:03.429Z,97.95
2019-05-29T06:36:20.789Z,93.54
2019-05-29T06:37:19.361Z,92.19
2019-05-29T06:38:17.922Z,91.62
2019-05-29T06:39:16.495Z,92.14
2019-05-29T06:40:15.064Z,90.56
2019-05-29T06:41:13.589Z,92
2019-05-29T06:42:12.150Z,94.69
2019-05-29T06:43:11.969Z,92.58
2019-05-29T06:44:09.384Z,91.42
2019-05-29T06:45:08.415Z,91.05
2019-05-29T06:46:06.543Z,93.15
2019-05-29T06:47:05.368Z,94.31
2019-05-29T06:48:04.048Z,92.72
2019-05-29T06:49:02.620Z,93.77
2019-05-29T06:50:01.148Z,93.2
2019-05-29T06:50:59.700Z,90.22
2019-05-29T06:51:58.278Z,89.36
2019-05-29T06:52:56.964Z,89.46
2019-05-29T06:53:55.596Z,92.29
2019-05-29T06:54:54.177Z,89.75
2019-05-29T06:55:54.920Z,98.58
2019-05-29T06:56:51.657Z,99.97
2019-05-29T06:57:50.224Z,92.63
2019-05-29T06:58:48.829Z,89.55
2019-05-29T06:59:48.909Z,89.17
2019-05-29T07:00:46.817Z,96.94
2019-05-29T07:01:44.924Z,98.1
2019-05-29T07:02:44.716Z,92.24
2019-05-29T07:03:42.059Z,93.68
2019-05-29T07:04:40.672Z,90.99
2019-05-29T07:05:39.846Z,96.51
2019-05-29T07:06:38.536Z,94.26
2019-05-29T07:07:36.484Z,91.76
2019-05-29T07:08:39.694Z,93.44
2019-05-29T07:09:33.994Z,90.37
2019-05-29T07:10:32.600Z,90.7
2019-05-29T07:11:31.188Z,91.04
2019-05-29T07:12:29.921Z,88.88
2019-05-29T07:13:28.443Z,89.36
2019-05-29T07:14:27.081Z,93.54
2019-05-29T07:15:25.735Z,94.78
2019-05-29T07:16:40.906Z,91.61
2019-05-29T07:17:22.968Z,99.99
2019-05-29T07:18:21.611Z,99.99
2019-05-29T07:19:26.749Z,95.94
2019-05-29T07:20:18.744Z,95.65
2019-05-29T07:21:17.442Z,97.71
2019-05-29T07:22:16.081Z,94.31
2019-05-29T07:23:14.586Z,91.09
2019-05-29T07:24:13.151Z,91.42
2019-05-29T07:25:11.697Z,90.08
2019-05-29T07:27:51.854Z,87.39
2019-05-29T07:29:07.242Z,86.05
2019-05-29T07:29:49.093Z,85.85
2019-05-29T07:30:57.545Z,88.73
2019-05-29T07:31:47.241Z,89.31
2019-05-29T07:32:51.796Z,88.45
2019-05-29T07:33:43.599Z,91.96
2019-05-29T07:34:56.569Z,92.72
2019-05-29T07:35:41.362Z,88.64
2019-05-29T07:36:39.868Z,86.68
2019-05-29T07:37:37.883Z,86.52
2019-05-29T07:38:37.611Z,86.05
2019-05-29T07:39:34.915Z,84.22
2019-05-29T07:40:35.795Z,88.78
2019-05-29T07:41:32.180Z,86.28
2019-05-29T07:42:30.749Z,85.22
2019-05-29T07:43:29.571Z,86.71
2019-05-29T07:44:28.172Z,83.78
2019-05-29T07:45:26.727Z,88.39
2019-05-29T07:46:25.376Z,85.75
2019-05-29T07:57:06.390Z,84.64
2019-05-29T07:58:05.117Z,87.09
2019-05-29T07:59:03.911Z,84.84
2019-05-29T08:00:02.430Z,84.59
2019-05-29T08:01:12.609Z,82.86
2019-05-29T08:01:59.607Z,84.07
2019-05-29T08:02:58.180Z,83.34
2019-05-29T08:03:56.741Z,90.8
2019-05-29T08:04:55.301Z,88.73
2019-05-29T08:05:53.855Z,85.27
2019-05-29T08:06:54.458Z,84.78
2019-05-29T08:07:51.148Z,81.71
2019-05-29T08:08:49.771Z,81.23
2019-05-29T08:09:49.560Z,80.36
2019-05-29T08:10:47.592Z,84.44
2019-05-29T08:11:45.729Z,80.88
2019-05-29T08:12:50.340Z,84.63
2019-05-29T08:13:43.564Z,83.39
2019-05-29T08:14:41.844Z,90.35
2019-05-29T08:15:53.825Z,85.02
2019-05-29T08:16:39.732Z,82.61
2019-05-29T08:17:37.258Z,84.06
2019-05-29T08:18:35.903Z,86.31
2019-05-29T08:19:34.482Z,81.98
2019-05-29T08:20:33.310Z,87.18
2019-05-29T08:21:31.985Z,79.73
2019-05-29T08:22:34.394Z,79.44
2019-05-29T08:23:29.096Z,78.77
2019-05-29T08:24:27.740Z,77.9
2019-05-29T08:25:26.328Z,79.44
2019-05-29T08:26:24.907Z,79.1
2019-05-29T08:27:23.664Z,77.46
2019-05-29T08:28:22.247Z,78.36
2019-05-29T08:29:20.964Z,77.01
2019-05-29T08:30:19.607Z,75.92
2019-05-29T08:31:18.158Z,81.16
2019-05-29T08:32:16.749Z,82.98
2019-05-29T08:33:15.331Z,79.9
2019-05-29T08:34:13.869Z,81.73
2019-05-29T08:35:12.998Z,77.88
2019-05-29T08:36:11.661Z,75.38
2019-05-29T08:37:10.245Z,74.99
2019-05-29T08:38:08.825Z,74.74
2019-05-29T08:39:07.405Z,75.19
2019-05-29T08:40:06.001Z,74.8
2019-05-29T08:41:05.938Z,75.19
2019-05-29T08:42:21.759Z,77.06
2019-05-29T08:43:02.060Z,74.16
2019-05-29T08:44:00.613Z,72.91
2019-05-29T08:44:59.227Z,72.39
2019-05-29T08:45:57.887Z,75.23
2019-05-29T08:47:08.412Z,73.88
2019-05-29T08:47:54.974Z,77.06
2019-05-29T08:48:53.563Z,74.74
2019-05-29T08:49:54.406Z,73.78
2019-05-29T08:50:50.643Z,73.58
2019-05-29T08:51:50.046Z,76.09
2019-05-29T08:52:48.140Z,84.09
2019-05-29T08:53:46.561Z,78.79
2019-05-29T08:54:45.985Z,81.68
2019-05-29T08:55:44.159Z,83.03
2019-05-29T08:56:42.425Z,84.38
2019-05-29T08:57:42.485Z,81.96
2019-05-29T08:58:39.898Z,79.94
2019-05-29T08:59:38.273Z,79.81
2019-05-29T09:00:36.823Z,79.13
2019-05-29T09:01:35.471Z,75.86
2019-05-29T09:02:34.076Z,74.03
2019-05-29T09:03:32.659Z,74.13
2019-05-29T09:04:31.487Z,74.22
2019-05-29T09:05:30.084Z,77.88
2019-05-29T09:06:28.619Z,81.21
2019-05-29T09:07:27.236Z,78.61
2019-05-29T09:08:25.887Z,76.98
2019-05-29T09:09:24.446Z,82.27
2019-05-29T09:10:23.321Z,83.14
2019-05-29T09:11:21.920Z,82.81
2019-05-29T09:12:20.475Z,80.02
2019-05-29T09:13:19.253Z,76.59
2019-05-29T09:14:17.894Z,75.24
2019-05-29T09:15:20.989Z,74.38
2019-05-29T09:16:15.129Z,74.09
2019-05-29T09:17:14.562Z,79.96
2019-05-29T09:18:12.957Z,78.17
2019-05-29T09:19:12.081Z,75.09
2019-05-29T09:20:25.872Z,74.13
2019-05-29T09:21:09.222Z,80.29
2019-05-29T09:22:07.893Z,80.68
2019-05-29T09:23:06.453Z,76.25
2019-05-29T09:24:05.026Z,79.46
2019-05-29T09:25:03.581Z,75.8
2019-05-29T09:26:13.923Z,76.86
2019-05-29T09:27:00.703Z,73.97
2019-05-29T09:27:59.329Z,75.19
2019-05-29T09:28:57.958Z,76.18
2019-05-29T09:29:56.515Z,74.55
2019-05-29T09:30:55.198Z,76.18
2019-05-29T09:31:53.840Z,76.28
2019-05-29T09:32:53.198Z,76.09
2019-05-29T09:33:51.050Z,74.74
2019-05-29T09:34:49.758Z,72.78
2019-05-29T09:35:48.312Z,79.9
2019-05-29T09:36:47.157Z,75.76
2019-05-29T09:37:45.790Z,78.02
2019-05-29T09:38:44.367Z,84.28
2019-05-29T09:39:42.998Z,84.81
2019-05-29T09:40:41.784Z,78.11
2019-05-29T09:41:40.336Z,74.74
2019-05-29T09:42:38.968Z,80.04
2019-05-29T09:43:37.630Z,76.76
2019-05-29T09:44:39.056Z,74.74
2019-05-29T09:45:34.851Z,73.78
2019-05-29T09:46:33.693Z,76.09
2019-05-29T09:47:32.244Z,81.2
2019-05-29T09:48:30.804Z,81.68
2019-05-29T09:49:29.455Z,78.5
2019-05-29T09:50:46.406Z,77.19
2019-05-29T09:51:26.619Z,79.56
2019-05-29T09:52:25.459Z,78.25
2019-05-29T09:53:24.162Z,76.13
2019-05-29T09:54:22.811Z,76.42
2019-05-29T09:55:21.367Z,83.36
2019-05-29T09:56:19.922Z,81.43
2019-05-29T09:57:18.474Z,81.43
2019-05-29T09:58:17.088Z,77.09
2019-05-29T09:59:15.639Z,77.96
2019-05-29T10:02:00.247Z,72.37
2019-05-29T10:02:57.454Z,73.57
2019-05-29T10:03:57.451Z,72.85
2019-05-29T10:04:56.096Z,71.25
2019-05-29T10:05:54.479Z,70.64
2019-05-29T10:06:53.106Z,72.18
2019-05-29T10:07:50.469Z,77
2019-05-29T10:08:49.002Z,76.86
2019-05-29T10:09:47.669Z,73.2
2019-05-29T10:10:46.341Z,73.1
2019-05-29T10:11:44.790Z,71.47
2019-05-29T10:12:43.600Z,71.98
2019-05-29T10:13:42.180Z,70.35
2019-05-29T10:14:40.789Z,72.75
2019-05-29T10:15:39.406Z,70.83
2019-05-29T10:16:37.995Z,69.67
2019-05-29T10:17:36.631Z,73.43
2019-05-29T10:18:35.194Z,73.82
2019-05-29T10:19:33.820Z,71.79
2019-05-29T10:20:32.344Z,68.52
2019-05-29T10:21:39.785Z,68.61
2019-05-29T10:22:29.449Z,68.74
2019-05-29T10:23:28.040Z,68.74
2019-05-29T10:24:26.580Z,68.29
2019-05-29T10:25:25.358Z,69.23
2019-05-29T10:26:23.998Z,73.37
2019-05-29T10:27:22.541Z,70.19
2019-05-29T10:28:21.242Z,69.42
2019-05-29T10:29:19.909Z,70.86
2019-05-29T10:30:18.534Z,76.07
2019-05-29T10:31:17.166Z,74.33
2019-05-29T10:32:16.119Z,74.62
2019-05-29T10:33:14.700Z,72.89
2019-05-29T10:34:13.404Z,69.57
2019-05-29T10:35:12.001Z,69.38
2019-05-29T10:36:10.546Z,73.24
2019-05-29T10:37:09.112Z,73.37
2019-05-29T10:38:07.653Z,73.47
2019-05-29T10:39:06.191Z,73.27
2019-05-29T10:40:04.766Z,68.55
2019-05-29T10:41:06.535Z,68.77
2019-05-29T10:42:02.154Z,72.83
2019-05-29T10:43:00.747Z,75.43
2019-05-29T10:43:59.455Z,75.43
2019-05-29T10:44:58.230Z,74.08
2019-05-29T10:45:56.916Z,74.76
2019-05-29T10:46:56.492Z,73.69
2019-05-29T10:47:54.225Z,75.34
2019-05-29T10:48:54.647Z,69.74
2019-05-29T10:49:51.837Z,68.43
2019-05-29T10:50:51.925Z,69.2
2019-05-29T10:52:05.305Z,68.62
2019-05-29T10:52:47.877Z,69.1
2019-05-29T10:53:46.998Z,69
2019-05-29T10:54:44.479Z,70.36
2019-05-29T10:55:44.364Z,69.39
2019-05-29T10:56:41.737Z,70.32
2019-05-29T10:57:40.313Z,70.36
2019-05-29T10:58:48.228Z,68.97
2019-05-29T10:59:37.450Z,71.77
2019-05-29T11:00:38.801Z,71.28
2019-05-29T11:01:34.606Z,70.9
2019-05-29T11:02:33.184Z,70.03
2019-05-29T11:03:31.959Z,68.77
2019-05-29T11:04:30.513Z,67
2019-05-29T11:05:29.090Z,68.07
2019-05-29T11:06:27.653Z,70.28
2019-05-29T11:07:26.275Z,71.92
2019-05-29T11:08:24.782Z,72.95
2019-05-29T11:09:23.555Z,70.64
2019-05-29T11:10:22.127Z,68.38
2019-05-29T11:11:20.726Z,71.08
2019-05-29T11:12:19.387Z,70.79
2019-05-29T11:13:18.078Z,69.35
2019-05-29T11:14:16.674Z,71.56
2019-05-29T11:15:21.090Z,73.1
2019-05-29T11:16:13.816Z,76.9
2019-05-29T11:17:12.421Z,73.14
2019-05-29T11:18:11.053Z,71.02
2019-05-29T11:19:09.770Z,71.79
2019-05-29T11:20:08.342Z,69.13
2019-05-29T11:21:06.988Z,71.15
2019-05-29T11:22:22.849Z,69.29
2019-05-29T11:23:04.227Z,71.54
2019-05-29T11:24:02.817Z,73.57
2019-05-29T11:25:20.914Z,69.03
2019-05-29T11:25:59.936Z,71.02
2019-05-29T11:26:58.998Z,71.25
2019-05-29T11:27:57.040Z,70.38
2019-05-29T11:28:56.607Z,72.5
2019-05-29T11:29:55.157Z,71.73
2019-05-29T11:30:53.716Z,71.6
2019-05-29T11:31:53.205Z,71.25
2019-05-29T11:32:52.512Z,68.45
2019-05-29T11:33:48.889Z,69.13
2019-05-29T11:34:48.664Z,66.94
2019-05-29T11:35:57.609Z,65.5
2019-05-29T11:36:44.554Z,66.01
2019-05-29T11:37:43.117Z,68.71
2019-05-29T11:38:41.669Z,71.38
2019-05-29T11:39:40.216Z,68.49
2019-05-29T11:40:38.884Z,67.81
2019-05-29T11:41:37.578Z,65.63
2019-05-29T11:42:36.222Z,66.59
2019-05-29T11:43:34.798Z,69.16
2019-05-29T11:44:33.485Z,68.1
2019-05-29T11:45:35.300Z,68.39
2019-05-29T11:46:30.660Z,69.74
2019-05-29T11:47:29.232Z,69.55
2019-05-29T11:48:27.795Z,68.59
2019-05-29T11:49:26.356Z,65.53
2019-05-29T11:50:25.129Z,65.72
2019-05-29T11:51:23.823Z,66.69
2019-05-29T11:52:24.655Z,64.76
2019-05-29T11:53:21.053Z,64.31
2019-05-29T11:54:19.779Z,64.31
2019-05-29T11:55:18.354Z,63.6
2019-05-29T11:56:16.922Z,62.05
2019-05-29T11:57:15.486Z,62.57
2019-05-29T11:58:29.941Z,62.28
2019-05-29T11:59:12.801Z,61.25
2019-05-29T12:00:19.348Z,61.34
2019-05-29T12:01:10.111Z,61.44
2019-05-29T12:02:08.762Z,61.92
2019-05-29T12:03:07.529Z,61.83
2019-05-29T12:04:22.285Z,63.34
2019-05-29T12:05:04.800Z,65.08
2019-05-29T12:06:03.462Z,64.56
2019-05-29T12:07:02.038Z,66.2
2019-05-29T12:08:01.846Z,66.88
2019-05-29T12:08:59.819Z,67.91
2019-05-29T12:09:58.077Z,69.64
2019-05-29T12:10:57.350Z,71.06
2019-05-29T12:11:56.085Z,71.83
2019-05-29T12:12:53.870Z,72.18
2019-05-29T12:13:54.014Z,72.95
2019-05-29T12:15:00.055Z,69.15
2019-05-29T12:15:49.823Z,69.15
2019-05-29T12:16:48.401Z,73.58
2019-05-29T12:17:47.012Z,73.1
2019-05-29T12:18:45.869Z,73.1
2019-05-29T12:19:44.467Z,70.92
2019-05-29T12:20:43.120Z,68.32
2019-05-29T12:21:42.827Z,68.9
2019-05-29T12:22:40.308Z,71.7
2019-05-29T12:23:38.874Z,73.97
2019-05-29T12:24:37.576Z,73.97
2019-05-29T12:25:36.149Z,75.13
2019-05-29T12:26:34.712Z,73.88
2019-05-29T12:27:33.289Z,72.24
2019-05-29T12:28:31.825Z,72.75
2019-05-29T12:29:30.365Z,73.01
2019-05-29T12:30:28.948Z,74.07
2019-05-29T12:31:27.481Z,71.5
2019-05-29T12:32:26.045Z,69.51
2019-05-29T12:33:24.586Z,68.35
2019-05-29T12:34:23.436Z,66.46
2019-05-29T12:35:22.084Z,63.37
2019-05-29T12:36:20.678Z,62.76
2019-05-29T12:37:19.303Z,62.31
2019-05-29T12:38:17.989Z,61.54
2019-05-29T12:39:16.563Z,61.96
2019-05-29T12:40:15.166Z,62.05
2019-05-29T12:41:13.855Z,61.22
2019-05-29T12:42:12.429Z,59.77
2019-05-29T12:43:25.821Z,58.45
2019-05-29T12:44:09.905Z,57.87
2019-05-29T12:45:08.518Z,56.35
2019-05-29T12:46:07.140Z,55.09
2019-05-29T12:47:05.826Z,55.09
2019-05-29T12:48:11.518Z,54.8
2019-05-29T12:49:03.724Z,54.03
2019-05-29T12:50:02.631Z,54.32
2019-05-29T12:51:00.652Z,54.71
2019-05-29T12:51:59.703Z,54.41
2019-05-29T12:52:57.828Z,54.99
2019-05-29T12:53:56.252Z,55.21
2019-05-29T12:54:55.852Z,55.31
2019-05-29T12:55:53.913Z,55.51
2019-05-29T12:56:52.174Z,56.54
2019-05-29T12:57:50.775Z,57.51
2019-05-29T12:58:49.632Z,56.63
2019-05-29T12:59:48.184Z,55.77